Time;durP1;ratioP1;P1;durP2;ratioP2;P2;SDS_P1;SDS_P2;PMS_P1;PMS_P2;Temp;Humidity;BMP_temperature;BMP_pressure;BME280_temperature;BME280_humidity;BME280_pressure;Samples;Min_cycle;Max_cycle;Signal;HPM_P1;HPM_P2
2021/08/14 00:01:15;;;;;;;34.70;4.30;;;;;;;;;;5002842;28;20022;-62
2021/08/14 00:03:41;;;;;;;34.75;5.38;;;;;;;;;;5004448;28;20033;-62
2021/08/14 00:06:07;;;;;;;35.55;5.63;;;;;;;;;;5000446;28;20112;-61
2021/08/14 00:08:32;;;;;;;27.63;4.53;;;;;;;;;;5004526;28;20035;-61
2021/08/14 00:10:58;;;;;;;29.08;5.28;;;;;;;;;;5004177;28;20160;-61
2021/08/14 00:13:23;;;;;;;29.20;5.07;;;;;;;;;;5001978;28;20046;-61
2021/08/14 00:15:49;;;;;;;31.70;5.20;;;;;;;;;;4996474;28;20029;-61
2021/08/14 00:18:14;;;;;;;28.30;5.57;;;;;;;;;;4993449;28;20030;-61
2021/08/14 00:20:40;;;;;;;29.65;4.60;;;;;;;;;;4996570;28;20042;-61
2021/08/14 00:23:06;;;;;;;35.55;5.00;;;;;;;;;;5004146;28;20124;-62
2021/08/14 00:25:31;;;;;;;29.45;4.82;;;;;;;;;;4995997;28;20513;-62
2021/08/14 00:27:57;;;;;;;39.25;4.90;;;;;;;;;;4998257;28;20091;-62
2021/08/14 00:30:22;;;;;;;25.15;4.40;;;;;;;;;;4999898;28;20037;-62
2021/08/14 00:32:48;;;;;;;33.40;4.60;;;;;;;;;;4999733;28;20034;-62
2021/08/14 00:35:13;;;;;;;30.48;4.88;;;;;;;;;;5005526;28;20049;-62
2021/08/14 00:37:39;;;;;;;35.75;5.90;;;;;;;;;;5006339;28;20026;-61
2021/08/14 00:40:07;;;;;;;41.30;5.07;;;;;;;;;;5004524;28;20038;-62
2021/08/14 00:42:32;;;;;;;32.67;4.97;;;;;;;;;;5007474;28;20037;-62
2021/08/14 00:44:58;;;;;;;34.20;5.43;;;;;;;;;;5000495;28;20042;-63
2021/08/14 00:47:27;;;;;;;25.63;6.93;;;;;;;;;;5000916;28;20160;-62
2021/08/14 00:49:54;;;;;;;43.58;4.97;;;;;;;;;;4995980;28;20034;-62
2021/08/14 00:52:20;;;;;;;33.22;4.88;;;;;;;;;;5004750;28;20038;-62
2021/08/14 00:54:46;;;;;;;35.75;5.15;;;;;;;;;;4999870;28;20030;-63
2021/08/14 00:57:13;;;;;;;46.80;5.80;;;;;;;;;;4999906;28;20612;-62
2021/08/14 00:59:39;;;;;;;25.50;4.85;;;;;;;;;;4997629;28;20525;-61
2021/08/14 01:02:06;;;;;;;30.58;4.88;;;;;;;;;;4981775;28;20022;-62
2021/08/14 01:04:31;;;;;;;24.77;4.63;;;;;;;;;;4978334;28;20768;-62
2021/08/14 01:06:58;;;;;;;40.45;5.20;;;;;;;;;;4982654;28;20030;-62
2021/08/14 01:09:25;;;;;;;31.17;4.90;;;;;;;;;;4982635;28;20058;-62
2021/08/14 01:11:51;;;;;;;30.92;4.47;;;;;;;;;;4979381;28;20546;-61
2021/08/14 01:14:16;;;;;;;29.98;5.35;;;;;;;;;;4981696;28;20129;-62
2021/08/14 01:16:42;;;;;;;30.05;4.88;;;;;;;;;;4979725;28;20497;-62
2021/08/14 01:19:08;;;;;;;38.67;5.20;;;;;;;;;;4980407;28;20497;-62
2021/08/14 01:21:33;;;;;;;36.08;4.90;;;;;;;;;;4978018;28;20050;-62
2021/08/14 01:24:02;;;;;;;31.80;5.63;;;;;;;;;;4977128;28;20041;-62
2021/08/14 01:26:30;;;;;;;24.42;4.78;;;;;;;;;;4974320;28;20233;-62
2021/08/14 01:28:56;;;;;;;27.52;4.72;;;;;;;;;;4976399;28;20109;-62
2021/08/14 01:31:22;;;;;;;30.25;4.82;;;;;;;;;;4974479;28;20101;-62
2021/08/14 01:33:47;;;;;;;36.97;6.78;;;;;;;;;;4981700;28;20057;-62
2021/08/14 01:36:16;;;;;;;37.63;6.07;;;;;;;;;;4981662;28;20671;-63
2021/08/14 01:38:53;;;;;;;31.77;5.38;;;;;;;;;;4983044;28;20038;-62
2021/08/14 01:41:20;;;;;;;34.13;4.68;;;;;;;;;;4984647;28;20030;-62
2021/08/14 01:44:08;;;;;;;36.03;5.72;;;;;;;;;;4981502;28;20466;-62
2021/08/14 01:46:41;;;;;;;36.25;4.80;;;;;;;;;;4973188;28;20031;-62
2021/08/14 01:49:07;;;;;;;34.00;5.55;;;;;;;;;;4979683;28;20023;-63
2021/08/14 01:51:33;;;;;;;33.88;4.32;;;;;;;;;;4982266;28;20041;-62
2021/08/14 01:53:59;;;;;;;38.17;5.43;;;;;;;;;;4979610;28;20066;-62
2021/08/14 01:56:26;;;;;;;42.67;4.63;;;;;;;;;;4974139;28;20108;-62
2021/08/14 01:58:52;;;;;;;41.03;5.10;;;;;;;;;;4981605;28;20485;-62
2021/08/14 02:01:18;;;;;;;40.85;6.63;;;;;;;;;;4980058;28;20069;-62
2021/08/14 02:03:46;;;;;;;33.10;5.78;;;;;;;;;;4975695;28;20058;-62
2021/08/14 02:06:16;;;;;;;32.75;6.65;;;;;;;;;;4976529;28;20034;-61
2021/08/14 02:08:42;;;;;;;31.60;6.55;;;;;;;;;;4974344;28;20035;-61
2021/08/14 02:11:15;;;;;;;38.63;5.78;;;;;;;;;;4975247;28;20026;-61
2021/08/14 02:13:44;;;;;;;56.30;5.82;;;;;;;;;;4974886;28;20061;-62
2021/08/14 02:16:11;;;;;;;32.97;5.97;;;;;;;;;;4973184;28;20092;-62
2021/08/14 02:18:37;;;;;;;42.03;4.68;;;;;;;;;;4980959;28;20038;-62
2021/08/14 02:21:03;;;;;;;31.20;5.22;;;;;;;;;;4973591;28;20077;-62
2021/08/14 02:23:28;;;;;;;41.95;5.45;;;;;;;;;;4982183;28;20410;-62
2021/08/14 02:25:54;;;;;;;36.85;4.65;;;;;;;;;;4976528;28;20045;-62
2021/08/14 02:28:20;;;;;;;34.13;4.72;;;;;;;;;;4983825;28;20041;-62
2021/08/14 02:30:45;;;;;;;37.35;5.32;;;;;;;;;;4973915;28;20482;-62
2021/08/14 02:33:10;;;;;;;50.42;6.63;;;;;;;;;;4979616;28;20134;-62
2021/08/14 02:35:36;;;;;;;24.70;5.20;;;;;;;;;;4980830;28;20045;-61
2021/08/14 02:38:02;;;;;;;25.10;5.78;;;;;;;;;;4981289;28;20030;-62
2021/08/14 02:40:27;;;;;;;43.53;5.28;;;;;;;;;;4976383;28;20041;-62
2021/08/14 02:42:53;;;;;;;42.85;6.05;;;;;;;;;;4975479;28;20406;-62
2021/08/14 02:45:18;;;;;;;46.13;6.15;;;;;;;;;;4975569;28;20043;-62
2021/08/14 02:47:44;;;;;;;33.38;5.47;;;;;;;;;;4975907;28;20073;-62
2021/08/14 02:50:10;;;;;;;43.92;6.75;;;;;;;;;;4981364;28;20151;-62
2021/08/14 02:52:36;;;;;;;27.35;4.75;;;;;;;;;;4982749;28;20066;-62
2021/08/14 02:55:02;;;;;;;40.00;6.50;;;;;;;;;;4978343;28;20445;-62
2021/08/14 02:57:28;;;;;;;41.47;5.65;;;;;;;;;;4975821;28;20058;-62
2021/08/14 02:59:53;;;;;;;48.25;7.03;;;;;;;;;;4983396;28;20595;-62
2021/08/14 03:02:19;;;;;;;34.53;5.10;;;;;;;;;;4982804;28;20057;-62
2021/08/14 03:04:45;;;;;;;53.40;6.13;;;;;;;;;;4979072;28;20115;-62
2021/08/14 03:07:11;;;;;;;44.65;6.95;;;;;;;;;;4981760;28;20053;-62
2021/08/14 03:09:36;;;;;;;34.83;5.53;;;;;;;;;;4978364;28;20288;-62
2021/08/14 03:12:02;;;;;;;38.20;5.82;;;;;;;;;;4974594;28;20035;-62
2021/08/14 03:14:28;;;;;;;45.15;5.95;;;;;;;;;;4980739;28;20080;-62
2021/08/14 03:16:53;;;;;;;39.58;6.25;;;;;;;;;;4986260;28;20026;-62
2021/08/14 03:19:18;;;;;;;53.42;6.70;;;;;;;;;;4983926;28;20521;-62
2021/08/14 03:21:44;;;;;;;45.13;6.10;;;;;;;;;;4976396;28;20058;-62
2021/08/14 03:24:10;;;;;;;46.45;6.20;;;;;;;;;;4980078;28;20571;-62
2021/08/14 03:26:35;;;;;;;48.10;6.03;;;;;;;;;;4983403;28;20521;-62
2021/08/14 03:29:01;;;;;;;50.85;6.90;;;;;;;;;;4980787;28;20066;-61
2021/08/14 03:31:26;;;;;;;39.42;6.25;;;;;;;;;;4976701;28;20026;-62
2021/08/14 03:33:52;;;;;;;33.35;5.72;;;;;;;;;;4976462;28;20236;-62
2021/08/14 03:36:18;;;;;;;45.08;5.90;;;;;;;;;;4981862;28;20030;-62
2021/08/14 03:38:43;;;;;;;41.15;6.47;;;;;;;;;;4980675;28;20042;-62
2021/08/14 03:41:09;;;;;;;34.70;6.85;;;;;;;;;;4981618;28;20023;-62
2021/08/14 03:43:36;;;;;;;38.78;6.47;;;;;;;;;;4981840;28;20539;-62
2021/08/14 03:46:02;;;;;;;35.88;5.88;;;;;;;;;;4979042;28;20080;-62
2021/08/14 03:48:28;;;;;;;37.03;5.82;;;;;;;;;;4977325;28;20490;-62
2021/08/14 03:50:53;;;;;;;34.80;6.35;;;;;;;;;;4977683;28;20030;-62
2021/08/14 03:53:19;;;;;;;36.83;6.80;;;;;;;;;;4983910;28;20030;-62
2021/08/14 03:55:44;;;;;;;42.40;6.15;;;;;;;;;;4980111;28;20096;-62
2021/08/14 03:58:10;;;;;;;39.25;6.65;;;;;;;;;;4981256;28;20069;-62
2021/08/14 04:00:36;;;;;;;39.40;6.55;;;;;;;;;;4980221;28;20070;-62
2021/08/14 04:03:01;;;;;;;35.60;6.15;;;;;;;;;;4979466;28;20066;-62
2021/08/14 04:05:27;;;;;;;37.75;6.15;;;;;;;;;;4982824;28;20108;-61
2021/08/14 04:07:52;;;;;;;37.20;6.90;;;;;;;;;;4983124;28;20129;-61
2021/08/14 04:10:18;;;;;;;36.80;6.03;;;;;;;;;;4979771;28;20027;-62
2021/08/14 04:12:44;;;;;;;32.50;5.70;;;;;;;;;;4985693;28;20038;-62
2021/08/14 04:15:10;;;;;;;46.67;8.75;;;;;;;;;;4977198;28;20050;-62
2021/08/14 04:17:36;;;;;;;31.40;5.45;;;;;;;;;;4980482;28;20034;-62
2021/08/14 04:20:03;;;;;;;43.10;6.30;;;;;;;;;;4978336;28;20054;-62
2021/08/14 04:22:28;;;;;;;31.40;5.95;;;;;;;;;;4977300;28;20034;-62
2021/08/14 04:24:54;;;;;;;53.67;7.53;;;;;;;;;;4980274;28;20034;-62
2021/08/14 04:27:20;;;;;;;35.42;6.47;;;;;;;;;;4982056;28;20056;-62
2021/08/14 04:29:45;;;;;;;35.17;6.40;;;;;;;;;;4977047;28;20042;-62
2021/08/14 04:32:11;;;;;;;35.30;5.95;;;;;;;;;;4981961;28;20038;-62
2021/08/14 04:34:36;;;;;;;48.55;6.28;;;;;;;;;;4979828;28;20513;-62
2021/08/14 04:37:02;;;;;;;44.03;6.38;;;;;;;;;;4982007;28;20429;-62
2021/08/14 04:39:28;;;;;;;38.08;7.13;;;;;;;;;;4975841;28;20130;-62
2021/08/14 04:41:53;;;;;;;37.95;6.93;;;;;;;;;;4973649;28;20062;-62
2021/08/14 04:44:19;;;;;;;39.13;6.28;;;;;;;;;;4978576;28;20178;-62
2021/08/14 04:46:44;;;;;;;33.50;6.20;;;;;;;;;;4984260;28;20080;-62
2021/08/14 04:49:10;;;;;;;38.47;5.63;;;;;;;;;;4973235;28;20049;-62
2021/08/14 04:51:35;;;;;;;37.28;6.20;;;;;;;;;;4980679;28;20038;-62
2021/08/14 04:54:01;;;;;;;40.95;6.22;;;;;;;;;;4970871;28;20504;-61
2021/08/14 04:56:26;;;;;;;42.03;5.68;;;;;;;;;;4981492;28;20041;-61
2021/08/14 04:58:52;;;;;;;39.00;7.60;;;;;;;;;;4979043;28;20057;-62
2021/08/14 05:01:18;;;;;;;46.65;7.00;;;;;;;;;;4982866;28;20100;-62
2021/08/14 05:03:43;;;;;;;45.00;7.97;;;;;;;;;;4972417;28;20436;-62
2021/08/14 05:06:09;;;;;;;40.13;6.32;;;;;;;;;;4982685;28;20037;-62
2021/08/14 05:08:35;;;;;;;42.95;7.32;;;;;;;;;;4984087;28;20061;-62
2021/08/14 05:11:02;;;;;;;38.75;6.63;;;;;;;;;;4977203;28;20105;-63
2021/08/14 05:13:28;;;;;;;33.05;6.50;;;;;;;;;;4974578;28;20036;-62
2021/08/14 05:15:53;;;;;;;35.95;6.20;;;;;;;;;;4974901;28;20037;-63
2021/08/14 05:18:19;;;;;;;41.70;7.78;;;;;;;;;;4979109;28;20033;-61
2021/08/14 05:20:44;;;;;;;46.00;6.95;;;;;;;;;;4976460;28;20568;-61
2021/08/14 05:23:10;;;;;;;29.65;6.15;;;;;;;;;;4984623;28;20048;-62
2021/08/14 05:25:35;;;;;;;26.13;5.88;;;;;;;;;;4979333;28;20065;-61
2021/08/14 05:28:01;;;;;;;35.88;6.35;;;;;;;;;;4974213;28;20045;-62
2021/08/14 05:30:27;;;;;;;36.38;6.45;;;;;;;;;;4977204;28;20057;-61
2021/08/14 05:32:53;;;;;;;48.72;7.28;;;;;;;;;;4975892;28;20042;-62
2021/08/14 05:35:18;;;;;;;34.25;5.45;;;;;;;;;;4979809;28;20023;-62
2021/08/14 05:37:44;;;;;;;40.17;6.10;;;;;;;;;;4982790;28;20409;-61
2021/08/14 05:40:10;;;;;;;38.67;6.47;;;;;;;;;;4981016;28;20405;-61
2021/08/14 05:42:35;;;;;;;43.38;7.15;;;;;;;;;;4973529;28;20054;-61
2021/08/14 05:45:01;;;;;;;42.83;7.55;;;;;;;;;;4974629;28;20026;-61
2021/08/14 05:47:26;;;;;;;37.95;7.10;;;;;;;;;;4973542;28;20116;-61
2021/08/14 05:49:52;;;;;;;39.28;7.32;;;;;;;;;;4978010;28;20141;-61
2021/08/14 05:52:18;;;;;;;43.80;6.75;;;;;;;;;;4979264;28;20042;-61
2021/08/14 05:54:43;;;;;;;44.47;8.60;;;;;;;;;;4970663;28;20031;-61
2021/08/14 05:57:09;;;;;;;42.17;7.80;;;;;;;;;;4978870;28;20109;-62
2021/08/14 05:59:34;;;;;;;28.17;6.82;;;;;;;;;;4979700;28;20469;-61
2021/08/14 06:02:00;;;;;;;36.28;6.97;;;;;;;;;;4983090;28;20031;-61
2021/08/14 06:04:25;;;;;;;37.97;7.32;;;;;;;;;;4973762;28;20043;-61
2021/08/14 06:06:51;;;;;;;49.40;8.20;;;;;;;;;;4980902;28;20030;-61
2021/08/14 06:09:16;;;;;;;32.13;7.35;;;;;;;;;;4986501;28;20054;-62
2021/08/14 06:11:42;;;;;;;25.10;5.95;;;;;;;;;;4983000;28;20093;-61
2021/08/14 06:14:07;;;;;;;39.53;7.00;;;;;;;;;;4975961;28;20077;-62
2021/08/14 06:16:33;;;;;;;30.60;7.00;;;;;;;;;;4979832;28;20128;-62
2021/08/14 06:18:59;;;;;;;43.53;7.45;;;;;;;;;;4981191;28;20030;-61
2021/08/14 06:21:25;;;;;;;29.67;6.68;;;;;;;;;;4982218;28;20082;-61
2021/08/14 06:23:50;;;;;;;33.05;8.02;;;;;;;;;;4982610;28;22075;-62
2021/08/14 06:26:16;;;;;;;36.75;7.13;;;;;;;;;;4981385;28;20034;-61
2021/08/14 06:28:41;;;;;;;35.95;8.45;;;;;;;;;;4977199;28;20085;-62
2021/08/14 06:31:07;;;;;;;33.47;7.25;;;;;;;;;;4982860;28;20027;-62
2021/08/14 06:33:33;;;;;;;34.25;7.53;;;;;;;;;;4982844;28;20038;-62
2021/08/14 06:35:58;;;;;;;31.50;6.32;;;;;;;;;;4980902;28;20050;-61
2021/08/14 06:38:24;;;;;;;37.95;7.25;;;;;;;;;;4981346;28;20034;-62
2021/08/14 06:40:49;;;;;;;38.97;7.03;;;;;;;;;;4981918;28;20038;-62
2021/08/14 06:43:15;;;;;;;38.42;6.72;;;;;;;;;;4982749;28;20023;-61
2021/08/14 06:45:40;;;;;;;33.50;6.50;;;;;;;;;;4986474;28;20050;-61
2021/08/14 06:48:06;;;;;;;37.08;6.43;;;;;;;;;;4983498;28;20034;-62
2021/08/14 06:50:32;;;;;;;43.15;7.32;;;;;;;;;;4984275;28;20063;-61
2021/08/14 06:52:57;;;;;;;37.88;7.20;;;;;;;;;;4987511;28;20113;-62
2021/08/14 06:55:23;;;;;;;31.95;6.82;;;;;;;;;;4984112;28;20077;-61
2021/08/14 06:57:48;;;;;;;42.20;7.10;;;;;;;;;;4980685;28;20515;-61
2021/08/14 07:00:15;;;;;;;39.95;6.68;;;;;;;;;;4983951;28;20070;-62
2021/08/14 07:02:41;;;;;;;39.72;7.05;;;;;;;;;;4980276;28;20508;-63
2021/08/14 07:05:07;;;;;;;41.13;6.65;;;;;;;;;;4978995;28;20030;-62
2021/08/14 07:07:33;;;;;;;33.55;6.95;;;;;;;;;;4974424;28;20039;-62
2021/08/14 07:10:02;;;;;;;39.63;6.88;;;;;;;;;;4981082;28;20497;-62
2021/08/14 07:12:28;;;;;;;31.17;6.85;;;;;;;;;;4980933;28;20493;-62
2021/08/14 07:14:55;;;;;;;34.20;6.00;;;;;;;;;;4983685;28;20317;-62
2021/08/14 07:17:21;;;;;;;33.33;6.88;;;;;;;;;;4984244;28;20041;-62
2021/08/14 07:19:46;;;;;;;33.35;6.10;;;;;;;;;;4977514;28;20431;-61
2021/08/14 07:22:12;;;;;;;40.13;6.60;;;;;;;;;;4978485;28;20039;-62
2021/08/14 07:24:37;;;;;;;40.78;6.63;;;;;;;;;;4976602;28;20046;-62
2021/08/14 07:27:03;;;;;;;47.05;7.15;;;;;;;;;;4977608;28;20034;-62
2021/08/14 07:29:29;;;;;;;54.85;7.72;;;;;;;;;;4981602;28;20026;-61
2021/08/14 07:31:54;;;;;;;40.22;6.97;;;;;;;;;;4984203;28;20565;-61
2021/08/14 07:34:20;;;;;;;43.10;8.30;;;;;;;;;;4980644;28;20375;-62
2021/08/14 07:36:46;;;;;;;30.58;6.05;;;;;;;;;;4979766;28;20065;-62
2021/08/14 07:39:11;;;;;;;32.35;5.57;;;;;;;;;;4977226;28;20104;-62
2021/08/14 07:41:37;;;;;;;31.52;6.13;;;;;;;;;;4978381;28;20686;-62
2021/08/14 07:44:02;;;;;;;32.17;7.38;;;;;;;;;;4987187;28;20034;-62
2021/08/14 07:46:28;;;;;;;38.25;6.35;;;;;;;;;;4981442;28;20042;-62
2021/08/14 07:48:53;;;;;;;33.13;6.32;;;;;;;;;;4974386;28;20690;-62
2021/08/14 07:51:19;;;;;;;23.83;5.53;;;;;;;;;;4976211;28;20406;-62
2021/08/14 07:53:44;;;;;;;29.48;6.03;;;;;;;;;;4982690;28;20035;-63
2021/08/14 07:56:10;;;;;;;28.67;6.15;;;;;;;;;;4974725;28;20031;-62
2021/08/14 07:58:35;;;;;;;39.20;6.65;;;;;;;;;;4986991;28;20038;-62
2021/08/14 08:01:01;;;;;;;53.88;8.15;;;;;;;;;;4976511;28;20046;-62
2021/08/14 08:03:26;;;;;;;30.30;5.93;;;;;;;;;;4975124;28;20181;-62
2021/08/14 08:05:52;;;;;;;26.05;5.47;;;;;;;;;;4981807;28;20037;-62
2021/08/14 08:08:17;;;;;;;31.40;6.25;;;;;;;;;;4981693;28;20545;-62
2021/08/14 08:10:43;;;;;;;33.92;8.00;;;;;;;;;;4979411;28;20037;-62
2021/08/14 08:13:08;;;;;;;34.38;6.78;;;;;;;;;;4977364;28;20061;-62
2021/08/14 08:15:34;;;;;;;37.22;7.90;;;;;;;;;;4976179;28;20038;-62
2021/08/14 08:17:59;;;;;;;27.20;5.80;;;;;;;;;;4978243;28;20042;-64
2021/08/14 08:20:25;;;;;;;43.92;7.13;;;;;;;;;;4977092;28;20145;-62
2021/08/14 08:22:50;;;;;;;44.95;6.72;;;;;;;;;;4978957;28;20037;-62
2021/08/14 08:25:17;;;;;;;31.80;8.25;;;;;;;;;;4983659;28;20109;-62
2021/08/14 08:27:48;;;;;;;34.42;5.88;;;;;;;;;;4976356;28;20058;-62
2021/08/14 08:30:16;;;;;;;39.35;6.85;;;;;;;;;;4982164;28;20030;-62
2021/08/14 08:32:42;;;;;;;29.25;6.82;;;;;;;;;;4973869;28;20124;-62
2021/08/14 08:35:08;;;;;;;30.20;5.82;;;;;;;;;;4980025;28;20508;-63
2021/08/14 08:37:34;;;;;;;33.22;5.55;;;;;;;;;;4979337;28;20120;-62
2021/08/14 08:40:00;;;;;;;36.33;6.82;;;;;;;;;;4972481;28;20115;-63
2021/08/14 08:42:26;;;;;;;39.05;6.03;;;;;;;;;;4987649;28;20546;-62
2021/08/14 08:44:51;;;;;;;37.28;7.00;;;;;;;;;;4983452;28;20148;-62
2021/08/14 08:47:17;;;;;;;32.92;6.82;;;;;;;;;;4978738;28;20428;-63
2021/08/14 08:49:57;;;;;;;34.70;7.32;;;;;;;;;;4980513;28;20118;-62
2021/08/14 08:52:23;;;;;;;39.13;6.90;;;;;;;;;;4980782;28;20173;-63
2021/08/14 08:54:50;;;;;;;40.05;7.22;;;;;;;;;;4972757;28;20057;-63
2021/08/14 08:57:16;;;;;;;30.30;6.13;;;;;;;;;;4981235;28;20086;-63
2021/08/14 08:59:45;;;;;;;22.40;5.32;;;;;;;;;;4975356;28;20037;-63
2021/08/14 09:02:23;;;;;;;31.60;6.20;;;;;;;;;;4977089;28;20058;-63
2021/08/14 09:05:12;;;;;;;30.90;5.82;;;;;;;;;;4975973;28;20038;-63
2021/08/14 09:07:39;;;;;;;33.30;5.38;;;;;;;;;;4981479;28;20027;-63
2021/08/14 09:10:10;;;;;;;31.65;5.82;;;;;;;;;;4985018;28;20029;-63
2021/08/14 09:12:41;;;;;;;34.83;5.53;;;;;;;;;;4974327;28;20061;-63
2021/08/14 09:15:19;;;;;;;33.75;5.90;;;;;;;;;;4979761;28;20026;-63
2021/08/14 09:17:46;;;;;;;25.52;5.55;;;;;;;;;;4977003;28;20109;-63
2021/08/14 09:20:17;;;;;;;25.33;5.47;;;;;;;;;;4978188;28;20081;-63
2021/08/14 09:23:05;;;;;;;39.22;6.07;;;;;;;;;;4982118;28;20040;-63
2021/08/14 09:25:45;;;;;;;30.55;5.65;;;;;;;;;;4975502;28;20049;-63
2021/08/14 09:28:12;;;;;;;30.42;6.15;;;;;;;;;;4975625;28;20117;-63
2021/08/14 09:30:54;;;;;;;29.58;5.80;;;;;;;;;;4976734;28;20030;-63
2021/08/14 09:33:22;;;;;;;31.90;5.57;;;;;;;;;;4976027;28;20510;-63
2021/08/14 09:35:59;;;;;;;32.03;5.38;;;;;;;;;;4975205;28;20038;-64
2021/08/14 09:38:40;;;;;;;44.05;6.65;;;;;;;;;;4979722;28;20114;-64
2021/08/14 09:41:08;;;;;;;37.33;6.18;;;;;;;;;;4981950;28;20026;-64
2021/08/14 09:43:35;;;;;;;26.35;5.63;;;;;;;;;;4971503;28;20031;-64
2021/08/14 09:46:00;;;;;;;39.08;6.43;;;;;;;;;;4971786;28;20324;-64
2021/08/14 09:48:26;;;;;;;35.30;7.55;;;;;;;;;;4982622;28;20276;-64
2021/08/14 09:50:52;;;;;;;29.77;5.68;;;;;;;;;;4978119;28;20061;-64
2021/08/14 09:53:23;;;;;;;67.28;8.80;;;;;;;;;;4974124;28;20038;-63
2021/08/14 09:56:03;;;;;;;32.60;7.07;;;;;;;;;;4979004;28;20042;-63
2021/08/14 09:58:29;;;;;;;32.05;6.40;;;;;;;;;;4975645;28;20548;-63
2021/08/14 10:00:56;;;;;;;30.02;6.63;;;;;;;;;;4978907;28;20037;-63
2021/08/14 10:03:22;;;;;;;27.88;6.70;;;;;;;;;;4978660;28;20757;-64
2021/08/14 10:05:48;;;;;;;27.05;5.60;;;;;;;;;;4971694;28;20030;-64
2021/08/14 10:08:14;;;;;;;30.38;6.07;;;;;;;;;;4985197;28;20026;-63
2021/08/14 10:10:40;;;;;;;24.35;7.32;;;;;;;;;;4973683;28;20129;-64
2021/08/14 10:13:05;;;;;;;29.02;5.63;;;;;;;;;;4985879;28;20145;-64
2021/08/14 10:15:31;;;;;;;26.08;5.53;;;;;;;;;;4974208;28;20185;-62
2021/08/14 10:17:57;;;;;;;28.42;5.53;;;;;;;;;;4986389;28;20117;-61
2021/08/14 10:20:23;;;;;;;29.73;5.82;;;;;;;;;;4972416;28;20129;-64
2021/08/14 10:23:04;;;;;;;28.40;6.18;;;;;;;;;;4975464;28;20069;-64
2021/08/14 10:25:31;;;;;;;28.63;6.22;;;;;;;;;;4973131;28;20545;-64
2021/08/14 10:28:01;;;;;;;30.67;5.97;;;;;;;;;;4977661;28;20568;-64
2021/08/14 10:30:53;;;;;;;31.45;5.88;;;;;;;;;;4980936;28;20382;-64
2021/08/14 10:33:28;;;;;;;20.52;6.32;;;;;;;;;;4981608;28;20066;-64
2021/08/14 10:36:17;;;;;;;24.52;5.22;;;;;;;;;;4981642;28;20447;-64
2021/08/14 10:38:44;;;;;;;23.05;5.28;;;;;;;;;;4980949;28;20046;-64
2021/08/14 10:41:11;;;;;;;19.15;6.30;;;;;;;;;;4982846;28;20039;-64
2021/08/14 10:43:55;;;;;;;20.67;4.85;;;;;;;;;;4984531;28;20081;-64
2021/08/14 10:46:39;;;;;;;19.52;5.57;;;;;;;;;;4980152;28;20033;-64
2021/08/14 10:49:06;;;;;;;24.45;5.10;;;;;;;;;;4980102;28;20023;-64
2021/08/14 10:51:51;;;;;;;24.23;4.72;;;;;;;;;;4983262;28;20061;-64
2021/08/14 10:54:29;;;;;;;16.40;4.93;;;;;;;;;;4980275;28;20026;-64
2021/08/14 10:56:56;;;;;;;25.63;4.97;;;;;;;;;;4975399;28;20136;-63
2021/08/14 10:59:39;;;;;;;26.15;5.72;;;;;;;;;;4979344;28;20018;-62
2021/08/14 11:02:10;;;;;;;33.15;6.65;;;;;;;;;;4972612;28;20300;-61
2021/08/14 11:04:38;;;;;;;31.93;6.10;;;;;;;;;;4977686;28;20030;-62
2021/08/14 11:07:19;;;;;;;21.52;5.50;;;;;;;;;;4976340;28;20169;-63
2021/08/14 11:09:53;;;;;;;32.85;5.28;;;;;;;;;;4979002;28;20080;-63
2021/08/14 11:12:37;;;;;;;24.67;5.53;;;;;;;;;;4971221;28;20097;-60
2021/08/14 11:15:20;;;;;;;16.52;4.70;;;;;;;;;;4981153;28;20031;-62
2021/08/14 11:17:49;;;;;;;26.77;5.07;;;;;;;;;;4981644;28;20481;-61
2021/08/14 11:20:20;;;;;;;22.17;5.05;;;;;;;;;;4980477;28;20251;-61
2021/08/14 11:22:48;;;;;;;21.92;4.57;;;;;;;;;;4977769;28;20031;-62
2021/08/14 11:25:28;;;;;;;21.60;5.15;;;;;;;;;;4979940;28;20148;-62
2021/08/14 11:28:05;;;;;;;25.98;5.18;;;;;;;;;;4982672;28;20022;-62
2021/08/14 11:30:38;;;;;;;30.25;5.38;;;;;;;;;;4982223;28;20386;-62
2021/08/14 11:33:06;;;;;;;26.13;5.88;;;;;;;;;;4976710;28;20248;-62
2021/08/14 11:35:33;;;;;;;22.60;6.07;;;;;;;;;;4977252;28;20347;-62
2021/08/14 11:38:04;;;;;;;29.85;5.95;;;;;;;;;;4978528;28;20034;-62
2021/08/14 11:40:32;;;;;;;25.63;6.20;;;;;;;;;;4983925;28;20023;-62
2021/08/14 11:43:12;;;;;;;27.25;5.32;;;;;;;;;;4985069;28;20046;-62
2021/08/14 11:45:40;;;;;;;21.85;5.63;;;;;;;;;;4979100;28;20036;-62
2021/08/14 11:48:17;;;;;;;29.42;6.47;;;;;;;;;;4980617;28;20517;-62
2021/08/14 11:50:46;;;;;;;24.35;5.78;;;;;;;;;;4986054;28;20264;-62
2021/08/14 11:53:23;;;;;;;15.43;5.60;;;;;;;;;;4979569;28;20034;-62
2021/08/14 11:56:06;;;;;;;23.05;6.18;;;;;;;;;;4979891;28;20042;-62
2021/08/14 11:58:32;;;;;;;20.25;4.95;;;;;;;;;;4979844;28;20349;-62
2021/08/14 12:00:58;;;;;;;13.48;3.80;;;;;;;;;;4974749;28;20249;-62
2021/08/14 12:03:25;;;;;;;10.35;3.17;;;;;;;;;;4980408;28;20062;-62
2021/08/14 12:05:51;;;;;;;13.13;3.70;;;;;;;;;;4975728;28;20042;-62
2021/08/14 12:08:31;;;;;;;12.27;4.10;;;;;;;;;;4981688;28;20448;-62
2021/08/14 12:11:04;;;;;;;16.02;3.38;;;;;;;;;;4980384;28;20031;-62
2021/08/14 12:13:29;;;;;;;21.30;4.05;;;;;;;;;;4979412;28;20378;-62
2021/08/14 12:16:17;;;;;;;11.40;3.40;;;;;;;;;;4982697;28;20048;-62
2021/08/14 12:18:47;;;;;;;19.08;4.18;;;;;;;;;;4982325;28;20026;-62
2021/08/14 12:21:14;;;;;;;10.65;3.35;;;;;;;;;;4979605;28;20034;-61
2021/08/14 12:23:41;;;;;;;16.27;3.42;;;;;;;;;;4980243;28;20478;-61
2021/08/14 12:26:22;;;;;;;12.88;3.53;;;;;;;;;;4978850;28;20148;-61
2021/08/14 12:28:59;;;;;;;13.48;3.22;;;;;;;;;;4977869;28;20029;-61
2021/08/14 12:31:24;;;;;;;15.35;4.00;;;;;;;;;;4976915;28;20026;-61
2021/08/14 12:33:52;;;;;;;12.80;3.53;;;;;;;;;;4979771;28;20053;-62
2021/08/14 12:37:03;;;;;;;9.30;3.60;;;;;;;;;;4981900;28;20034;-61
2021/08/14 12:39:45;;;;;;;14.88;3.35;;;;;;;;;;4981206;28;20039;-61
2021/08/14 12:42:40;;;;;;;9.98;3.20;;;;;;;;;;4975074;28;20035;-61
2021/08/14 12:45:23;;;;;;;10.05;3.08;;;;;;;;;;4980845;28;20165;-61
2021/08/14 12:47:50;;;;;;;18.58;4.30;;;;;;;;;;4978408;28;20027;-61
2021/08/14 12:50:32;;;;;;;11.00;3.13;;;;;;;;;;4979432;28;20034;-62
2021/08/14 12:53:14;;;;;;;21.27;3.88;;;;;;;;;;4983843;28;20104;-62
2021/08/14 12:55:52;;;;;;;11.07;3.15;;;;;;;;;;4974549;28;20026;-62
2021/08/14 12:58:20;;;;;;;9.70;2.70;;;;;;;;;;4975164;28;20034;-62
2021/08/14 13:00:48;;;;;;;14.15;3.33;;;;;;;;;;4984588;28;20030;-62
2021/08/14 13:03:14;;;;;;;14.23;3.45;;;;;;;;;;4976552;28;20117;-62
2021/08/14 13:05:39;;;;;;;13.27;3.30;;;;;;;;;;4975611;28;20034;-62
2021/08/14 13:08:06;;;;;;;16.63;4.55;;;;;;;;;;4976246;28;20035;-62
2021/08/14 13:10:35;;;;;;;13.45;3.22;;;;;;;;;;4976801;28;20479;-62
2021/08/14 13:13:03;;;;;;;11.07;3.30;;;;;;;;;;4977128;28;20034;-62
2021/08/14 13:15:29;;;;;;;10.48;2.97;;;;;;;;;;4972315;28;20585;-63
2021/08/14 13:17:56;;;;;;;14.63;3.60;;;;;;;;;;4976687;28;20536;-62
2021/08/14 13:20:25;;;;;;;9.77;3.15;;;;;;;;;;4980571;28;20142;-62
2021/08/14 13:22:55;;;;;;;9.07;3.08;;;;;;;;;;4977259;28;20572;-62
2021/08/14 13:25:23;;;;;;;11.65;2.97;;;;;;;;;;4982733;28;20875;-62
2021/08/14 13:27:50;;;;;;;10.40;3.10;;;;;;;;;;4978157;28;20034;-62
2021/08/14 13:30:25;;;;;;;10.90;3.13;;;;;;;;;;4979069;28;20026;-62
2021/08/14 13:32:53;;;;;;;7.82;2.80;;;;;;;;;;4975079;28;20373;-63
2021/08/14 13:35:19;;;;;;;6.28;2.58;;;;;;;;;;4979099;28;20073;-63
2021/08/14 13:37:46;;;;;;;10.27;3.03;;;;;;;;;;4976311;28;20461;-63
2021/08/14 13:40:14;;;;;;;13.45;3.22;;;;;;;;;;4975780;28;20042;-63
2021/08/14 13:42:40;;;;;;;9.75;3.05;;;;;;;;;;4976331;28;20025;-63
2021/08/14 13:45:08;;;;;;;11.07;3.60;;;;;;;;;;4978558;28;20748;-63
2021/08/14 13:47:33;;;;;;;9.93;3.92;;;;;;;;;;4975965;28;20038;-63
2021/08/14 13:49:59;;;;;;;14.43;3.40;;;;;;;;;;4976810;28;20049;-63
2021/08/14 13:52:24;;;;;;;13.18;4.10;;;;;;;;;;4978490;28;20039;-63
2021/08/14 13:54:50;;;;;;;12.80;3.83;;;;;;;;;;4974508;28;20501;-63
2021/08/14 13:57:16;;;;;;;17.00;4.13;;;;;;;;;;4971344;28;20403;-63
2021/08/14 13:59:42;;;;;;;15.23;4.28;;;;;;;;;;4978485;28;20428;-62
2021/08/14 14:02:10;;;;;;;15.15;4.20;;;;;;;;;;4978346;28;20059;-62
2021/08/14 14:04:36;;;;;;;11.50;3.63;;;;;;;;;;4973731;28;20038;-62
2021/08/14 14:07:01;;;;;;;16.20;4.43;;;;;;;;;;4979380;28;20417;-62
2021/08/14 14:09:29;;;;;;;18.38;5.43;;;;;;;;;;4978113;28;20022;-62
2021/08/14 14:11:58;;;;;;;16.75;4.82;;;;;;;;;;4974600;28;20748;-62
2021/08/14 14:14:24;;;;;;;16.80;4.88;;;;;;;;;;4975865;28;20122;-62
2021/08/14 14:16:50;;;;;;;21.90;4.80;;;;;;;;;;4980564;28;20133;-63
2021/08/14 14:19:16;;;;;;;17.13;4.80;;;;;;;;;;4973664;28;20662;-62
2021/08/14 14:21:41;;;;;;;15.52;4.55;;;;;;;;;;4977410;28;20058;-62
2021/08/14 14:24:07;;;;;;;16.42;4.50;;;;;;;;;;4978261;28;20030;-62
2021/08/14 14:26:32;;;;;;;16.52;4.47;;;;;;;;;;4973968;28;20038;-62
2021/08/14 14:28:58;;;;;;;15.02;5.18;;;;;;;;;;4974302;28;20433;-62
2021/08/14 14:31:23;;;;;;;19.67;5.35;;;;;;;;;;4975782;28;20027;-62
2021/08/14 14:33:49;;;;;;;18.63;5.32;;;;;;;;;;4974053;28;20058;-62
2021/08/14 14:36:14;;;;;;;19.63;5.43;;;;;;;;;;4977096;28;20034;-62